Time;durP1;ratioP1;P1;durP2;ratioP2;P2;SDS_P1;SDS_P2;PMS_P1;PMS_P2;Temp;Humidity;BMP_temperature;BMP_pressure;BME280_temperature;BME280_humidity;BME280_pressure;Samples;Min_cycle;Max_cycle;Signal;HPM_P1;HPM_P2
2022/07/08 00:01:47;;;;;;;1.42;1.08;;;;;;;;;;5055542;28;20697;-78
2022/07/08 00:04:14;;;;;;;2.08;1.40;;;;;;;;;;5056133;28;20379;-78
2022/07/08 00:06:42;;;;;;;1.60;1.38;;;;;;;;;;5055740;28;20296;-77
2022/07/08 00:09:10;;;;;;;3.47;2.00;;;;;;;;;;5057636;28;20574;-78
2022/07/08 00:11:39;;;;;;;2.53;1.35;;;;;;;;;;5055244;28;20604;-78
2022/07/08 00:14:07;;;;;;;3.83;1.40;;;;;;;;;;5058069;28;20209;-78
2022/07/08 00:16:40;;;;;;;2.97;1.63;;;;;;;;;;5057597;28;20407;-78
2022/07/08 00:19:07;;;;;;;2.40;1.17;;;;;;;;;;5035655;28;20288;-77
2022/07/08 00:21:35;;;;;;;3.03;1.20;;;;;;;;;;5035362;28;20226;-78
2022/07/08 00:24:03;;;;;;;2.28;1.20;;;;;;;;;;5036400;28;20266;-78
2022/07/08 00:26:30;;;;;;;7.90;3.78;;;;;;;;;;5035725;28;20202;-78
2022/07/08 00:28:58;;;;;;;2.30;1.40;;;;;;;;;;5035476;28;20206;-78
2022/07/08 00:31:25;;;;;;;6.38;1.48;;;;;;;;;;5035556;28;20738;-78
2022/07/08 00:33:54;;;;;;;3.20;1.52;;;;;;;;;;5035134;28;20738;-78
2022/07/08 00:36:22;;;;;;;6.05;1.15;;;;;;;;;;5034374;28;20253;-77
2022/07/08 00:38:49;;;;;;;2.65;1.23;;;;;;;;;;5035756;28;20289;-78
2022/07/08 00:41:17;;;;;;;2.85;1.75;;;;;;;;;;5035266;28;20333;-78
2022/07/08 00:43:47;;;;;;;2.53;1.25;;;;;;;;;;5034561;28;20206;-78
2022/07/08 00:46:16;;;;;;;2.95;1.35;;;;;;;;;;5035541;28;20206;-78
2022/07/08 00:48:45;;;;;;;2.10;1.27;;;;;;;;;;5052434;28;20714;-79
2022/07/08 00:51:16;;;;;;;3.17;1.27;;;;;;;;;;5058197;28;20248;-76
2022/07/08 00:53:48;;;;;;;3.85;1.60;;;;;;;;;;5074585;28;20212;-77
2022/07/08 00:56:16;;;;;;;2.90;1.50;;;;;;;;;;5073295;28;20261;-77
2022/07/08 00:58:43;;;;;;;2.42;1.40;;;;;;;;;;5076515;28;20237;-79
2022/07/08 01:01:11;;;;;;;2.35;1.42;;;;;;;;;;5057414;28;20233;-78
2022/07/08 01:03:38;;;;;;;4.15;1.50;;;;;;;;;;5054193;28;20293;-78
2022/07/08 01:06:07;;;;;;;3.65;1.40;;;;;;;;;;5054430;28;20206;-79
2022/07/08 01:08:36;;;;;;;2.47;1.48;;;;;;;;;;5055098;28;20273;-79
2022/07/08 01:11:03;;;;;;;3.72;1.70;;;;;;;;;;5054474;28;20310;-79
2022/07/08 01:13:31;;;;;;;2.72;1.70;;;;;;;;;;5053609;28;20212;-77
2022/07/08 01:15:58;;;;;;;2.40;1.83;;;;;;;;;;5054990;28;20293;-79
2022/07/08 01:18:29;;;;;;;1.83;1.25;;;;;;;;;;5054268;28;20297;-79
2022/07/08 01:20:58;;;;;;;6.45;1.73;;;;;;;;;;5054303;28;20244;-79
2022/07/08 01:23:26;;;;;;;5.50;2.30;;;;;;;;;;5053957;28;20201;-78
2022/07/08 01:25:54;;;;;;;4.13;1.65;;;;;;;;;;5054647;28;20288;-78
2022/07/08 01:28:22;;;;;;;3.10;1.75;;;;;;;;;;5055115;28;20322;-78
2022/07/08 01:30:49;;;;;;;3.75;1.35;;;;;;;;;;5054248;28;20316;-78
2022/07/08 01:33:17;;;;;;;2.65;1.20;;;;;;;;;;5053655;28;20284;-79
2022/07/08 01:35:45;;;;;;;3.45;1.75;;;;;;;;;;5054057;28;20293;-78
2022/07/08 01:38:14;;;;;;;1.40;1.08;;;;;;;;;;5054086;28;20216;-79
2022/07/08 01:40:41;;;;;;;4.88;1.67;;;;;;;;;;5054242;28;20292;-77
2022/07/08 01:43:09;;;;;;;2.80;1.52;;;;;;;;;;5053960;28;20237;-78
2022/07/08 01:45:36;;;;;;;2.53;1.50;;;;;;;;;;5054082;28;20240;-78
2022/07/08 01:48:04;;;;;;;2.78;1.50;;;;;;;;;;5052398;28;20725;-77
2022/07/08 01:50:31;;;;;;;3.80;1.30;;;;;;;;;;5054059;28;20305;-78
2022/07/08 01:52:59;;;;;;;4.10;1.38;;;;;;;;;;5053366;28;20289;-78
2022/07/08 01:55:28;;;;;;;2.38;1.63;;;;;;;;;;5054060;28;20304;-78
2022/07/08 01:57:56;;;;;;;1.67;1.20;;;;;;;;;;5053432;28;20233;-78
2022/07/08 02:00:24;;;;;;;2.97;1.40;;;;;;;;;;5053224;28;20247;-77
2022/07/08 02:02:51;;;;;;;3.25;1.92;;;;;;;;;;5053207;28;20209;-78
2022/07/08 02:05:19;;;;;;;4.00;2.40;;;;;;;;;;5053819;28;20277;-78
2022/07/08 02:07:46;;;;;;;1.27;1.13;;;;;;;;;;5053384;28;20648;-77
2022/07/08 02:10:14;;;;;;;3.70;1.50;;;;;;;;;;5053674;28;20221;-77
2022/07/08 02:12:42;;;;;;;4.30;1.67;;;;;;;;;;5053134;28;20208;-77
2022/07/08 02:15:10;;;;;;;2.95;1.42;;;;;;;;;;5054098;28;20249;-78
2022/07/08 02:17:40;;;;;;;2.05;1.38;;;;;;;;;;5048854;28;20282;-76
2022/07/08 02:20:10;;;;;;;2.28;1.50;;;;;;;;;;5045086;28;20288;-77
2022/07/08 02:22:38;;;;;;;3.50;1.73;;;;;;;;;;5053290;28;20205;-77
2022/07/08 02:25:07;;;;;;;5.18;1.10;;;;;;;;;;5053956;28;20312;-77
2022/07/08 02:27:35;;;;;;;1.77;1.25;;;;;;;;;;5053533;28;20266;-77
2022/07/08 02:30:05;;;;;;;3.45;1.70;;;;;;;;;;5061798;23;20323;-83
2022/07/08 02:32:32;;;;;;;3.83;1.42;;;;;;;;;;5094395;28;20651;-81
2022/07/08 02:35:00;;;;;;;3.47;1.33;;;;;;;;;;5095230;28;20243;-83
2022/07/08 02:37:27;;;;;;;4.20;1.73;;;;;;;;;;5094413;28;20613;-83
2022/07/08 02:39:55;;;;;;;4.07;1.70;;;;;;;;;;5094668;28;20263;-82
2022/07/08 02:42:23;;;;;;;4.80;2.17;;;;;;;;;;5094097;28;20706;-83
2022/07/08 02:44:50;;;;;;;2.17;1.98;;;;;;;;;;5101546;23;20220;-81
2022/07/08 02:47:19;;;;;;;4.97;1.60;;;;;;;;;;5094969;28;20220;-83
2022/07/08 02:49:47;;;;;;;10.15;2.60;;;;;;;;;;5095588;28;20623;-83
2022/07/08 02:52:14;;;;;;;3.30;1.80;;;;;;;;;;5094889;28;20236;-82
2022/07/08 02:54:42;;;;;;;3.47;1.50;;;;;;;;;;5086581;28;20748;-83
2022/07/08 02:57:09;;;;;;;7.15;1.70;;;;;;;;;;5074377;28;20227;-83
2022/07/08 02:59:37;;;;;;;2.53;1.92;;;;;;;;;;5076886;28;20239;-83
2022/07/08 03:02:05;;;;;;;2.35;1.40;;;;;;;;;;5077246;28;20652;-82
2022/07/08 03:04:34;;;;;;;6.20;2.25;;;;;;;;;;5077455;28;20248;-82
2022/07/08 03:07:01;;;;;;;2.55;1.95;;;;;;;;;;5078776;28;20281;-82
2022/07/08 03:09:29;;;;;;;3.85;1.38;;;;;;;;;;5078606;28;20258;-81
2022/07/08 03:11:56;;;;;;;2.20;1.58;;;;;;;;;;5078887;28;20270;-82
2022/07/08 03:14:24;;;;;;;2.20;1.23;;;;;;;;;;5079196;28;20668;-82
2022/07/08 03:16:51;;;;;;;2.83;1.35;;;;;;;;;;5078527;28;20240;-82
2022/07/08 03:19:19;;;;;;;3.63;1.40;;;;;;;;;;5078520;28;20654;-83
2022/07/08 03:21:48;;;;;;;3.33;1.20;;;;;;;;;;5078287;28;20256;-83
2022/07/08 03:24:15;;;;;;;2.42;1.38;;;;;;;;;;5078937;28;20243;-82
2022/07/08 03:26:43;;;;;;;2.35;1.30;;;;;;;;;;5078065;28;20232;-82
2022/07/08 03:29:10;;;;;;;2.58;1.20;;;;;;;;;;5077258;28;20205;-82
2022/07/08 03:31:39;;;;;;;2.15;1.20;;;;;;;;;;5076708;28;20292;-81
2022/07/08 03:34:07;;;;;;;4.05;1.40;;;;;;;;;;5078474;28;20712;-82
2022/07/08 03:36:34;;;;;;;3.47;1.40;;;;;;;;;;5077250;28;20220;-81
2022/07/08 03:39:04;;;;;;;2.33;1.25;;;;;;;;;;5077692;28;20204;-82
2022/07/08 03:41:31;;;;;;;2.85;1.38;;;;;;;;;;5076609;28;20312;-81
2022/07/08 03:43:58;;;;;;;4.32;1.30;;;;;;;;;;5075885;28;20254;-82
2022/07/08 03:46:26;;;;;;;5.22;1.38;;;;;;;;;;5077028;28;20711;-81
2022/07/08 03:48:53;;;;;;;2.72;1.73;;;;;;;;;;5077104;28;20658;-82
2022/07/08 03:51:22;;;;;;;3.88;1.77;;;;;;;;;;5077110;28;20255;-83
2022/07/08 03:53:50;;;;;;;1.52;1.20;;;;;;;;;;5076503;28;20227;-82
2022/07/08 03:56:19;;;;;;;1.58;1.25;;;;;;;;;;5077131;28;20292;-83
2022/07/08 03:58:46;;;;;;;3.92;1.52;;;;;;;;;;5077146;28;20200;-83
2022/07/08 04:01:14;;;;;;;2.75;2.05;;;;;;;;;;5076504;28;20203;-83
2022/07/08 04:03:41;;;;;;;3.22;1.20;;;;;;;;;;5075220;28;20291;-83
2022/07/08 04:06:09;;;;;;;2.80;2.50;;;;;;;;;;5076739;28;20208;-82
2022/07/08 04:08:36;;;;;;;5.57;1.65;;;;;;;;;;5076285;28;20312;-82
2022/07/08 04:11:04;;;;;;;2.60;1.73;;;;;;;;;;5075424;28;20232;-83
2022/07/08 04:13:33;;;;;;;7.50;1.30;;;;;;;;;;5076535;28;20678;-83
2022/07/08 04:16:04;;;;;;;4.55;1.33;;;;;;;;;;5076450;28;20308;-82
2022/07/08 04:18:32;;;;;;;1.52;1.42;;;;;;;;;;5077017;28;20201;-82
2022/07/08 04:20:59;;;;;;;3.25;1.30;;;;;;;;;;5076297;28;20283;-82
2022/07/08 04:23:27;;;;;;;3.90;1.83;;;;;;;;;;5075845;28;20252;-82
2022/07/08 04:25:54;;;;;;;2.33;1.70;;;;;;;;;;5076898;28;20546;-83
2022/07/08 04:28:22;;;;;;;2.90;1.25;;;;;;;;;;5076100;28;20677;-82
2022/07/08 04:30:51;;;;;;;3.88;1.63;;;;;;;;;;5076548;28;20197;-81
2022/07/08 04:33:18;;;;;;;2.50;1.52;;;;;;;;;;5076707;28;20261;-82
2022/07/08 04:35:46;;;;;;;1.33;1.00;;;;;;;;;;5076334;28;20311;-81
2022/07/08 04:38:13;;;;;;;2.03;1.20;;;;;;;;;;5076539;28;20296;-82
2022/07/08 04:40:41;;;;;;;3.97;1.30;;;;;;;;;;5076788;28;20239;-82
2022/07/08 04:43:09;;;;;;;3.55;1.70;;;;;;;;;;5075438;28;20287;-81
2022/07/08 04:45:36;;;;;;;3.50;1.10;;;;;;;;;;5076498;28;20232;-81
2022/07/08 04:48:05;;;;;;;7.45;1.60;;;;;;;;;;5075892;28;20235;-82
2022/07/08 04:50:33;;;;;;;3.17;1.13;;;;;;;;;;5076441;28;20737;-82
2022/07/08 04:53:01;;;;;;;1.50;1.10;;;;;;;;;;5076241;28;20228;-82
2022/07/08 04:55:31;;;;;;;2.42;1.65;;;;;;;;;;5076368;28;20267;-82
2022/07/08 04:58:00;;;;;;;2.83;1.20;;;;;;;;;;5076231;28;20196;-81
2022/07/08 05:00:28;;;;;;;2.45;1.15;;;;;;;;;;5076003;28;20232;-81
2022/07/08 05:02:55;;;;;;;5.05;1.60;;;;;;;;;;5075935;28;20903;-82
2022/07/08 05:05:26;;;;;;;1.30;1.20;;;;;;;;;;5075779;28;20348;-83
2022/07/08 05:07:54;;;;;;;3.28;1.70;;;;;;;;;;5075886;28;20197;-82
2022/07/08 05:10:22;;;;;;;2.47;1.38;;;;;;;;;;5076462;28;20197;-82
2022/07/08 05:12:50;;;;;;;1.08;0.95;;;;;;;;;;5075550;28;20637;-82
2022/07/08 05:15:17;;;;;;;2.30;1.05;;;;;;;;;;5075330;28;20662;-82
2022/07/08 05:17:45;;;;;;;2.00;1.20;;;;;;;;;;5075518;28;20300;-82
2022/07/08 05:20:13;;;;;;;2.80;1.38;;;;;;;;;;5074747;28;20205;-82
2022/07/08 05:22:42;;;;;;;2.05;1.05;;;;;;;;;;5074357;28;20231;-82
2022/07/08 05:25:11;;;;;;;4.13;1.20;;;;;;;;;;5075575;28;20307;-82
2022/07/08 05:27:38;;;;;;;5.03;2.00;;;;;;;;;;5075913;28;20201;-82
2022/07/08 05:30:09;;;;;;;1.58;1.00;;;;;;;;;;5075479;28;20638;-82
2022/07/08 05:32:36;;;;;;;2.85;1.00;;;;;;;;;;5073684;28;20197;-81
2022/07/08 05:35:05;;;;;;;1.92;1.15;;;;;;;;;;5074419;28;20252;-80
2022/07/08 05:37:35;;;;;;;2.47;1.50;;;;;;;;;;5075143;28;20236;-82
2022/07/08 05:40:05;;;;;;;2.08;1.00;;;;;;;;;;5075256;28;20346;-81
2022/07/08 05:42:33;;;;;;;2.40;1.20;;;;;;;;;;5074437;28;20312;-82
2022/07/08 05:45:01;;;;;;;1.73;0.88;;;;;;;;;;5074997;28;20236;-80
2022/07/08 05:47:28;;;;;;;1.88;1.10;;;;;;;;;;5074804;28;20229;-82
2022/07/08 05:49:56;;;;;;;4.55;1.05;;;;;;;;;;5066284;28;20301;-81
2022/07/08 05:52:23;;;;;;;3.03;1.20;;;;;;;;;;5074253;28;20287;-81
2022/07/08 05:54:51;;;;;;;7.40;1.33;;;;;;;;;;5075050;28;20652;-82
2022/07/08 05:57:20;;;;;;;2.40;1.30;;;;;;;;;;5074934;28;20292;-81
2022/07/08 05:59:47;;;;;;;4.53;1.45;;;;;;;;;;5075001;28;20236;-81
2022/07/08 06:02:15;;;;;;;2.17;1.17;;;;;;;;;;5074306;28;20283;-81
2022/07/08 06:04:42;;;;;;;4.15;2.03;;;;;;;;;;5074001;28;20260;-82
2022/07/08 06:07:10;;;;;;;3.80;1.30;;;;;;;;;;5074298;28;20200;-81
2022/07/08 06:09:38;;;;;;;2.33;1.27;;;;;;;;;;5074804;28;20296;-82
2022/07/08 06:12:07;;;;;;;1.85;1.33;;;;;;;;;;5074776;28;20677;-81
2022/07/08 06:14:36;;;;;;;2.00;1.23;;;;;;;;;;5074787;28;20252;-81
2022/07/08 06:17:03;;;;;;;2.05;1.30;;;;;;;;;;5075141;28;20725;-81
2022/07/08 06:19:31;;;;;;;6.80;1.98;;;;;;;;;;5074385;28;20235;-82
2022/07/08 06:22:00;;;;;;;4.40;1.45;;;;;;;;;;5074044;28;20233;-83
2022/07/08 06:24:27;;;;;;;6.70;2.10;;;;;;;;;;5074733;28;20332;-83
2022/07/08 06:26:55;;;;;;;4.25;1.90;;;;;;;;;;5074015;28;20707;-82
2022/07/08 06:29:22;;;;;;;2.92;1.70;;;;;;;;;;5074162;28;20266;-83
2022/07/08 06:31:51;;;;;;;2.92;1.50;;;;;;;;;;5074342;28;20315;-82
2022/07/08 06:34:19;;;;;;;4.15;1.60;;;;;;;;;;5073738;28;20259;-81
2022/07/08 06:36:46;;;;;;;1.88;1.65;;;;;;;;;;5074346;28;20232;-83
2022/07/08 06:39:14;;;;;;;2.78;1.73;;;;;;;;;;5074056;28;20696;-81
2022/07/08 06:41:41;;;;;;;1.88;1.30;;;;;;;;;;5073840;28;20250;-81
2022/07/08 06:44:09;;;;;;;2.22;1.10;;;;;;;;;;5074331;28;20319;-83
2022/07/08 06:46:36;;;;;;;3.83;1.63;;;;;;;;;;5074459;28;20623;-82
2022/07/08 06:49:05;;;;;;;1.98;1.30;;;;;;;;;;5074405;28;20250;-82
2022/07/08 06:51:33;;;;;;;2.70;1.63;;;;;;;;;;5073861;28;20265;-82
2022/07/08 06:56:45;;;;;;;2.30;1.42;;;;;;;;;;5068260;28;20271;-82
2022/07/08 06:59:13;;;;;;;2.47;1.30;;;;;;;;;;5073825;28;20693;-81
2022/07/08 07:01:40;;;;;;;1.73;1.00;;;;;;;;;;5072082;28;20702;-81
2022/07/08 07:04:09;;;;;;;2.15;1.10;;;;;;;;;;5073423;28;20256;-81
2022/07/08 07:06:37;;;;;;;1.38;1.00;;;;;;;;;;5069166;28;20260;-82
2022/07/08 07:09:05;;;;;;;4.10;1.92;;;;;;;;;;5058084;28;20194;-83
2022/07/08 07:11:33;;;;;;;2.60;1.30;;;;;;;;;;5055989;28;20202;-81
2022/07/08 07:14:01;;;;;;;2.60;1.33;;;;;;;;;;5073449;28;20731;-82
2022/07/08 07:16:29;;;;;;;2.08;1.15;;;;;;;;;;5073272;28;20634;-81
2022/07/08 07:18:56;;;;;;;3.47;1.80;;;;;;;;;;5056104;28;20249;-82
2022/07/08 07:21:25;;;;;;;1.88;1.17;;;;;;;;;;5054397;28;20259;-82
2022/07/08 07:23:53;;;;;;;1.95;1.33;;;;;;;;;;5053623;28;20691;-81
2022/07/08 07:26:20;;;;;;;1.88;1.17;;;;;;;;;;5055987;28;20237;-83
2022/07/08 07:28:48;;;;;;;2.95;1.30;;;;;;;;;;5074057;28;20200;-81
2022/07/08 07:31:15;;;;;;;4.20;1.40;;;;;;;;;;5057688;28;20265;-81
2022/07/08 07:33:43;;;;;;;3.10;1.50;;;;;;;;;;5053581;28;20651;-81
2022/07/08 07:36:11;;;;;;;2.28;1.30;;;;;;;;;;5054095;28;20300;-83
2022/07/08 07:38:39;;;;;;;2.05;1.10;;;;;;;;;;5054327;28;20209;-83
2022/07/08 07:41:07;;;;;;;2.30;1.52;;;;;;;;;;5054252;28;20233;-82
2022/07/08 07:43:35;;;;;;;3.47;1.30;;;;;;;;;;5053126;28;20240;-83
2022/07/08 07:46:02;;;;;;;2.22;1.20;;;;;;;;;;5056815;28;20729;-82
2022/07/08 07:48:30;;;;;;;2.10;1.13;;;;;;;;;;5072655;28;20208;-83
2022/07/08 07:50:57;;;;;;;3.33;1.73;;;;;;;;;;5078425;28;20673;-82
2022/07/08 07:53:26;;;;;;;1.58;1.10;;;;;;;;;;5076985;28;20232;-83
2022/07/08 07:55:57;;;;;;;1.77;1.38;;;;;;;;;;5078209;28;20307;-82
2022/07/08 07:58:25;;;;;;;3.05;1.30;;;;;;;;;;5077387;28;20201;-83
2022/07/08 08:00:53;;;;;;;1.90;1.25;;;;;;;;;;5077314;28;20197;-82
2022/07/08 08:03:20;;;;;;;4.78;1.45;;;;;;;;;;5076847;28;20292;-83
2022/07/08 08:05:48;;;;;;;1.60;1.15;;;;;;;;;;5077106;28;20701;-81
2022/07/08 08:08:15;;;;;;;1.92;1.25;;;;;;;;;;5077022;28;20288;-84
2022/07/08 08:10:43;;;;;;;1.83;1.10;;;;;;;;;;5076992;28;20634;-82
2022/07/08 08:13:12;;;;;;;3.70;1.20;;;;;;;;;;5076223;28;20296;-83
2022/07/08 08:15:39;;;;;;;2.03;1.63;;;;;;;;;;5076683;28;20303;-82
2022/07/08 08:18:07;;;;;;;2.15;1.35;;;;;;;;;;5076717;28;20292;-82
2022/07/08 08:20:35;;;;;;;3.08;1.30;;;;;;;;;;5077200;28;20244;-83
2022/07/08 08:23:03;;;;;;;2.92;1.45;;;;;;;;;;5077141;28;20288;-82
2022/07/08 08:25:31;;;;;;;3.45;1.35;;;;;;;;;;5076679;28;20221;-82
2022/07/08 08:27:58;;;;;;;3.53;1.23;;;;;;;;;;5077005;28;20296;-82
2022/07/08 08:30:27;;;;;;;3.05;1.25;;;;;;;;;;5076742;28;20288;-82
2022/07/08 08:32:55;;;;;;;2.97;1.48;;;;;;;;;;5076811;28;20236;-82
2022/07/08 08:35:22;;;;;;;2.40;1.20;;;;;;;;;;5077239;28;20299;-82
2022/07/08 08:37:50;;;;;;;1.20;1.20;;;;;;;;;;5076715;28;20340;-82
2022/07/08 08:40:18;;;;;;;2.17;1.55;;;;;;;;;;5077304;28;20207;-82
2022/07/08 08:42:45;;;;;;;2.63;1.52;;;;;;;;;;5058160;28;20292;-84
2022/07/08 08:45:13;;;;;;;2.33;1.30;;;;;;;;;;5070172;28;20265;-83
2022/07/08 08:47:42;;;;;;;2.72;1.58;;;;;;;;;;5079207;28;20205;-84
2022/07/08 08:52:57;;;;;;;2.55;1.45;;;;;;;;;;5078158;28;20199;-83
2022/07/08 08:55:27;;;;;;;2.08;1.45;;;;;;;;;;5076912;28;20221;-84
2022/07/08 08:58:00;;;;;;;2.15;1.38;;;;;;;;;;5076477;28;20296;-83
2022/07/08 09:00:29;;;;;;;2.60;1.30;;;;;;;;;;5072573;28;20247;-82
2022/07/08 09:02:59;;;;;;;2.13;1.20;;;;;;;;;;5056136;28;20280;-82
2022/07/08 09:05:27;;;;;;;3.28;1.08;;;;;;;;;;5056101;28;20316;-82
2022/07/08 09:07:56;;;;;;;3.00;1.60;;;;;;;;;;5056595;28;20232;-82
2022/07/08 09:10:24;;;;;;;3.40;1.60;;;;;;;;;;5056865;28;20267;-81
2022/07/08 09:13:06;;;;;;;4.97;1.80;;;;;;;;;;5056491;28;20240;-82
2022/07/08 09:15:36;;;;;;;2.25;1.63;;;;;;;;;;5074506;28;20248;-82
2022/07/08 09:18:07;;;;;;;1.33;0.88;;;;;;;;;;5076042;28;20227;-83
2022/07/08 09:20:46;;;;;;;1.50;1.35;;;;;;;;;;5076773;28;20201;-82
2022/07/08 09:23:19;;;;;;;1.08;0.82;;;;;;;;;;5076038;28;20661;-81
2022/07/08 09:25:49;;;;;;;1.30;1.20;;;;;;;;;;5076428;28;20316;-83
2022/07/08 09:28:17;;;;;;;2.42;1.17;;;;;;;;;;5076612;28;20263;-82
2022/07/08 09:30:45;;;;;;;1.83;1.73;;;;;;;;;;5077869;28;20243;-82
2022/07/08 09:33:14;;;;;;;3.00;1.52;;;;;;;;;;5077595;28;20197;-83
2022/07/08 09:35:44;;;;;;;1.85;0.90;;;;;;;;;;5067561;28;20261;-83
2022/07/08 09:38:12;;;;;;;1.80;1.20;;;;;;;;;;5057755;28;20684;-83
2022/07/08 09:40:39;;;;;;;1.02;0.80;;;;;;;;;;5056765;28;20221;-83
2022/07/08 09:43:14;;;;;;;1.25;1.10;;;;;;;;;;5056221;28;20237;-81
2022/07/08 09:45:41;;;;;;;1.45;1.10;;;;;;;;;;5057020;28;20283;-83
2022/07/08 09:48:10;;;;;;;1.90;0.95;;;;;;;;;;5068430;28;20207;-82
2022/07/08 09:50:44;;;;;;;2.13;1.25;;;;;;;;;;5076889;28;20231;-83
2022/07/08 09:53:14;;;;;;;2.08;1.20;;;;;;;;;;5076338;28;20673;-81
2022/07/08 09:55:44;;;;;;;2.92;1.40;;;;;;;;;;5076556;28;20240;-82
2022/07/08 09:58:14;;;;;;;1.85;1.05;;;;;;;;;;5076853;28;20338;-83
2022/07/08 10:00:43;;;;;;;2.47;1.15;;;;;;;;;;5075859;28;20624;-81
2022/07/08 10:03:12;;;;;;;2.03;1.75;;;;;;;;;;5076392;28;20235;-81
2022/07/08 10:05:41;;;;;;;1.42;0.93;;;;;;;;;;5077513;28;20233;-81
2022/07/08 10:08:10;;;;;;;1.58;1.10;;;;;;;;;;5073757;28;20292;-82
2022/07/08 10:10:39;;;;;;;2.17;1.17;;;;;;;;;;5075456;28;20232;-82
2022/07/08 10:13:07;;;;;;;2.40;1.15;;;;;;;;;;5075396;28;20288;-81
2022/07/08 10:15:36;;;;;;;1.58;1.45;;;;;;;;;;5075307;28;20255;-81
2022/07/08 10:18:09;;;;;;;7.50;1.38;;;;;;;;;;5074740;28;20296;-81
2022/07/08 10:20:39;;;;;;;2.72;1.20;;;;;;;;;;5075707;28;20224;-81
2022/07/08 10:23:11;;;;;;;1.77;1.08;;;;;;;;;;5075039;28;20672;-83
2022/07/08 10:25:39;;;;;;;1.45;0.93;;;;;;;;;;5075101;28;20225;-81
2022/07/08 10:28:10;;;;;;;1.63;0.85;;;;;;;;;;5075238;28;20291;-82
2022/07/08 10:30:51;;;;;;;2.38;1.55;;;;;;;;;;5075264;28;20280;-82
2022/07/08 10:33:26;;;;;;;4.28;1.23;;;;;;;;;;5075056;28;20216;-81
2022/07/08 10:36:08;;;;;;;0.90;0.88;;;;;;;;;;5074172;28;20735;-82
2022/07/08 10:38:39;;;;;;;1.10;0.90;;;;;;;;;;5075392;28;20181;-82
2022/07/08 10:41:10;;;;;;;2.20;1.45;;;;;;;;;;5075014;28;20216;-83
2022/07/08 10:43:39;;;;;;;1.50;1.40;;;;;;;;;;5074574;28;20201;-82
2022/07/08 10:46:13;;;;;;;1.23;1.13;;;;;;;;;;5074760;28;20308;-82
2022/07/08 10:48:55;;;;;;;2.58;1.08;;;;;;;;;;5074562;28;20211;-82
2022/07/08 10:51:47;;;;;;;1.77;0.98;;;;;;;;;;5075136;28;20277;-82
2022/07/08 10:54:39;;;;;;;1.48;1.10;;;;;;;;;;5075675;28;20229;-82
2022/07/08 10:57:17;;;;;;;0.90;0.80;;;;;;;;;;5074126;28;20204;-82
2022/07/08 11:00:07;;;;;;;1.70;1.00;;;;;;;;;;5074201;28;20632;-82
2022/07/08 11:02:38;;;;;;;0.82;0.82;;;;;;;;;;5073861;28;20209;-81
2022/07/08 11:05:07;;;;;;;1.42;1.13;;;;;;;;;;5073437;28;20228;-82
2022/07/08 11:07:34;;;;;;;2.65;0.90;;;;;;;;;;5073281;28;20250;-83
2022/07/08 11:10:08;;;;;;;1.52;1.42;;;;;;;;;;5073731;28;20287;-83
2022/07/08 11:12:38;;;;;;;2.50;1.02;;;;;;;;;;5073427;28;20209;-81
2022/07/08 11:15:10;;;;;;;1.83;1.73;;;;;;;;;;5073558;28;20294;-82
2022/07/08 11:17:40;;;;;;;1.30;1.20;;;;;;;;;;5074403;28;20292;-84
2022/07/08 11:20:10;;;;;;;1.13;0.93;;;;;;;;;;5076219;28;20208;-84
2022/07/08 11:22:40;;;;;;;3.92;1.85;;;;;;;;;;5077729;28;20574;-82
2022/07/08 11:25:12;;;;;;;2.85;1.00;;;;;;;;;;5078170;28;20223;-83
2022/07/08 11:27:40;;;;;;;1.17;1.08;;;;;;;;;;5077041;28;20312;-85
2022/07/08 11:30:11;;;;;;;1.83;1.25;;;;;;;;;;5076664;28;20695;-82
2022/07/08 11:32:38;;;;;;;2.05;1.20;;;;;;;;;;5077380;28;20233;-84
2022/07/08 11:35:09;;;;;;;1.33;0.80;;;;;;;;;;5078338;28;20300;-84
2022/07/08 11:37:41;;;;;;;1.00;0.93;;;;;;;;;;5078415;28;20232;-84
2022/07/08 11:40:12;;;;;;;2.03;1.20;;;;;;;;;;5079210;28;20212;-82
2022/07/08 11:42:40;;;;;;;0.90;0.90;;;;;;;;;;5077651;28;20205;-82
2022/07/08 11:45:12;;;;;;;2.10;1.10;;;;;;;;;;5076871;28;20721;-82
2022/07/08 11:47:40;;;;;;;2.10;1.52;;;;;;;;;;5077204;28;20274;-82
2022/07/08 11:50:10;;;;;;;0.95;0.95;;;;;;;;;;5076959;28;20201;-82
2022/07/08 11:52:38;;;;;;;2.20;1.08;;;;;;;;;;5076316;28;20235;-82
2022/07/08 11:55:10;;;;;;;1.33;0.90;;;;;;;;;;5076402;28;20225;-82
2022/07/08 11:57:42;;;;;;;3.25;1.58;;;;;;;;;;5076883;28;20201;-82
2022/07/08 12:00:11;;;;;;;2.40;1.20;;;;;;;;;;5059942;28;20622;-82
2022/07/08 12:02:39;;;;;;;1.08;0.75;;;;;;;;;;5056352;28;20241;-83
2022/07/08 12:05:09;;;;;;;1.75;1.00;;;;;;;;;;5055663;28;20343;-84
2022/07/08 12:07:38;;;;;;;1.15;0.95;;;;;;;;;;5056509;28;20221;-83
2022/07/08 12:10:09;;;;;;;1.10;0.88;;;;;;;;;;5056403;28;20687;-83
2022/07/08 12:12:37;;;;;;;1.45;0.80;;;;;;;;;;5055643;28;20237;-83
2022/07/08 12:15:12;;;;;;;2.28;1.70;;;;;;;;;;5056089;28;20349;-81
2022/07/08 12:17:40;;;;;;;2.33;1.00;;;;;;;;;;5064016;28;20203;-82
2022/07/08 12:20:09;;;;;;;2.15;1.20;;;;;;;;;;5075202;28;20287;-82
2022/07/08 12:22:45;;;;;;;1.50;0.85;;;;;;;;;;5075126;28;20697;-82
2022/07/08 12:25:15;;;;;;;1.30;0.70;;;;;;;;;;5076713;28;20227;-82
2022/07/08 12:27:43;;;;;;;2.20;0.98;;;;;;;;;;5075311;28;20293;-83
2022/07/08 12:30:11;;;;;;;1.67;0.98;;;;;;;;;;5076104;28;20326;-82
2022/07/08 12:32:40;;;;;;;1.77;0.88;;;;;;;;;;5074930;28;20240;-84
2022/07/08 12:35:09;;;;;;;2.60;1.13;;;;;;;;;;5075849;28;20769;-85
2022/07/08 12:37:37;;;;;;;2.08;0.82;;;;;;;;;;5075209;28;20197;-84
2022/07/08 12:40:17;;;;;;;1.33;1.23;;;;;;;;;;5076351;28;20197;-83
2022/07/08 12:43:00;;;;;;;1.63;0.90;;;;;;;;;;5075221;28;20219;-83
2022/07/08 12:45:29;;;;;;;1.70;0.80;;;;;;;;;;5037894;28;1094685;-82
2022/07/08 12:47:56;;;;;;;0.90;0.80;;;;;;;;;;5076001;28;20236;-84
2022/07/08 12:50:24;;;;;;;1.42;0.88;;;;;;;;;;5076011;28;20644;-85
2022/07/08 12:52:52;;;;;;;1.27;0.80;;;;;;;;;;5076095;28;20252;-84
2022/07/08 12:55:21;;;;;;;1.05;0.80;;;;;;;;;;5075909;28;20225;-83
2022/07/08 12:57:48;;;;;;;3.20;1.10;;;;;;;;;;5062563;28;20289;-85
2022/07/08 13:00:17;;;;;;;0.73;0.73;;;;;;;;;;5073623;28;20192;-85
2022/07/08 13:02:45;;;;;;;2.63;1.23;;;;;;;;;;5076154;28;20235;-82
2022/07/08 13:05:13;;;;;;;1.77;1.00;;;;;;;;;;5075143;28;20315;-85
2022/07/08 13:07:41;;;;;;;1.33;1.08;;;;;;;;;;5075873;28;20303;-84
2022/07/08 13:10:10;;;;;;;1.05;0.70;;;;;;;;;;5076258;28;20682;-83
2022/07/08 13:12:39;;;;;;;1.33;0.93;;;;;;;;;;5075639;28;20240;-83
2022/07/08 13:15:08;;;;;;;3.08;1.02;;;;;;;;;;5077032;28;20264;-83
2022/07/08 13:17:35;;;;;;;5.93;1.63;;;;;;;;;;5076332;28;20197;-82
2022/07/08 13:20:03;;;;;;;0.80;0.80;;;;;;;;;;5076193;28;20288;-84
2022/07/08 13:22:31;;;;;;;0.88;0.88;;;;;;;;;;5075276;28;20291;-82
2022/07/08 13:24:58;;;;;;;0.90;0.85;;;;;;;;;;5075627;28;20418;-82
2022/07/08 13:27:26;;;;;;;0.85;0.85;;;;;;;;;;5075402;28;20261;-81
2022/07/08 13:29:56;;;;;;;1.50;0.80;;;;;;;;;;5075796;28;20287;-82
2022/07/08 13:32:24;;;;;;;1.25;0.88;;;;;;;;;;5075779;28;20204;-83
2022/07/08 13:34:51;;;;;;;4.72;2.08;;;;;;;;;;5076236;28;20227;-82
2022/07/08 13:37:20;;;;;;;1.38;0.98;;;;;;;;;;5070595;28;20247;-83
2022/07/08 13:39:47;;;;;;;0.95;0.77;;;;;;;;;;5075559;28;20236;-82
2022/07/08 13:42:15;;;;;;;1.55;1.10;;;;;;;;;;5075115;28;20258;-84
2022/07/08 13:44:42;;;;;;;2.10;1.05;;;;;;;;;;5074786;28;20288;-82
2022/07/08 13:47:11;;;;;;;1.23;0.82;;;;;;;;;;5071826;28;20264;-82
2022/07/08 13:49:39;;;;;;;1.05;0.88;;;;;;;;;;5070097;28;20201;-83
2022/07/08 13:52:07;;;;;;;1.17;0.88;;;;;;;;;;5075157;28;20201;-82
2022/07/08 13:54:42;;;;;;;2.58;1.02;;;;;;;;;;5073718;28;20240;-83
2022/07/08 13:57:10;;;;;;;0.90;0.90;;;;;;;;;;5075517;28;20268;-83
2022/07/08 13:59:38;;;;;;;0.93;0.90;;;;;;;;;;5074965;28;20284;-83
2022/07/08 14:02:06;;;;;;;0.88;0.88;;;;;;;;;;5074556;28;20200;-84
2022/07/08 14:04:35;;;;;;;0.80;0.80;;;;;;;;;;5073521;28;20248;-84
2022/07/08 14:07:04;;;;;;;0.70;0.70;;;;;;;;;;5075267;28;20714;-84
2022/07/08 14:09:31;;;;;;;0.80;0.80;;;;;;;;;;5075938;28;20212;-84
2022/07/08 14:11:59;;;;;;;1.23;0.82;;;;;;;;;;5074767;28;20201;-83
2022/07/08 14:14:26;;;;;;;1.58;0.75;;;;;;;;;;5075352;28;20247;-83
2022/07/08 14:16:54;;;;;;;1.08;0.90;;;;;;;;;;5075443;28;20232;-83
2022/07/08 14:19:22;;;;;;;1.00;0.75;;;;;;;;;;5075072;28;20708;-84
2022/07/08 14:21:51;;;;;;;1.73;1.02;;;;;;;;;;5075136;28;20249;-82
2022/07/08 14:24:18;;;;;;;2.15;0.88;;;;;;;;;;5075215;28;20304;-82
2022/07/08 14:26:46;;;;;;;0.80;0.80;;;;;;;;;;5075265;28;20239;-85
2022/07/08 14:29:13;;;;;;;1.40;0.95;;;;;;;;;;5075516;28;20263;-82
2022/07/08 14:31:41;;;;;;;0.70;0.70;;;;;;;;;;5075125;28;20243;-82
2022/07/08 14:34:09;;;;;;;1.23;1.10;;;;;;;;;;5075330;28;20231;-83
2022/07/08 14:36:36;;;;;;;1.08;0.90;;;;;;;;;;5074942;28;20291;-84
2022/07/08 14:39:05;;;;;;;0.82;0.70;;;;;;;;;;5075155;28;20743;-81
2022/07/08 14:41:33;;;;;;;2.08;0.85;;;;;;;;;;5075812;28;20233;-82
2022/07/08 14:44:00;;;;;;;1.40;1.13;;;;;;;;;;5074821;28;20201;-84
2022/07/08 14:46:28;;;;;;;2.17;0.82;;;;;;;;;;5074620;28;20283;-83
2022/07/08 14:48:56;;;;;;;0.80;0.80;;;;;;;;;;5073432;28;20225;-83
2022/07/08 14:51:23;;;;;;;5.00;1.30;;;;;;;;;;5074579;28;20614;-82
2022/07/08 14:53:51;;;;;;;1.70;1.08;;;;;;;;;;5073431;28;20269;-83
2022/07/08 14:56:20;;;;;;;1.30;0.90;;;;;;;;;;5079522;28;20244;-84
2022/07/08 14:59:06;;;;;;;4.28;1.20;;;;;;;;;;5080641;28;20237;-85